sensor_id;sensor_type;location;lat;lon;timestamp;P1;durP1;ratioP1;P2;durP2;ratioP2
56927;SDS011;60850;52.502;13.426;2022-07-23T00:01:18;6.63;;;4.57;;
56927;SDS011;60850;52.502;13.426;2022-07-23T00:03:47;5.05;;;4.05;;
56927;SDS011;60850;52.502;13.426;2022-07-23T00:06:14;7.63;;;4.38;;
56927;SDS011;60850;52.502;13.426;2022-07-23T00:08:40;6.80;;;4.55;;
56927;SDS011;60850;52.502;13.426;2022-07-23T00:11:07;9.73;;;4.88;;
56927;SDS011;60850;52.502;13.426;2022-07-23T00:13:34;8.50;;;5.15;;
56927;SDS011;60850;52.502;13.426;2022-07-23T00:16:01;8.18;;;4.68;;
56927;SDS011;60850;52.502;13.426;2022-07-23T00:18:28;7.75;;;4.47;;
56927;SDS011;60850;52.502;13.426;2022-07-23T00:20:56;6.47;;;4.60;;
56927;SDS011;60850;52.502;13.426;2022-07-23T00:23:23;8.50;;;4.78;;
56927;SDS011;60850;52.502;13.426;2022-07-23T00:25:50;6.90;;;4.50;;
56927;SDS011;60850;52.502;13.426;2022-07-23T00:28:18;7.32;;;4.25;;
56927;SDS011;60850;52.502;13.426;2022-07-23T00:30:45;7.15;;;4.80;;
56927;SDS011;60850;52.502;13.426;2022-07-23T00:33:12;8.00;;;4.65;;
56927;SDS011;60850;52.502;13.426;2022-07-23T00:35:39;7.70;;;5.00;;
56927;SDS011;60850;52.502;13.426;2022-07-23T00:38:09;7.68;;;4.25;;
56927;SDS011;60850;52.502;13.426;2022-07-23T00:40:37;9.80;;;4.40;;
56927;SDS011;60850;52.502;13.426;2022-07-23T00:43:05;7.72;;;4.57;;
56927;SDS011;60850;52.502;13.426;2022-07-23T00:45:32;6.00;;;4.80;;
56927;SDS011;60850;52.502;13.426;2022-07-23T00:47:59;7.82;;;4.75;;
56927;SDS011;60850;52.502;13.426;2022-07-23T00:50:25;7.72;;;4.88;;
56927;SDS011;60850;52.502;13.426;2022-07-23T00:52:53;6.57;;;5.15;;
56927;SDS011;60850;52.502;13.426;2022-07-23T00:55:22;8.93;;;5.55;;
56927;SDS011;60850;52.502;13.426;2022-07-23T00:57:49;6.30;;;4.72;;
56927;SDS011;60850;52.502;13.426;2022-07-23T01:00:17;6.53;;;4.45;;
56927;SDS011;60850;52.502;13.426;2022-07-23T01:02:43;7.60;;;4.55;;
56927;SDS011;60850;52.502;13.426;2022-07-23T01:05:10;7.88;;;4.82;;
56927;SDS011;60850;52.502;13.426;2022-07-23T01:07:38;8.63;;;4.80;;
56927;SDS011;60850;52.502;13.426;2022-07-23T01:10:05;6.25;;;4.30;;
56927;SDS011;60850;52.502;13.426;2022-07-23T01:12:55;8.02;;;4.65;;
56927;SDS011;60850;52.502;13.426;2022-07-23T01:15:22;6.75;;;4.78;;
56927;SDS011;60850;52.502;13.426;2022-07-23T01:17:48;7.13;;;4.57;;
56927;SDS011;60850;52.502;13.426;2022-07-23T01:20:15;6.97;;;4.63;;
56927;SDS011;60850;52.502;13.426;2022-07-23T01:22:44;8.18;;;4.68;;
56927;SDS011;60850;52.502;13.426;2022-07-23T01:25:10;6.10;;;4.82;;
56927;SDS011;60850;52.502;13.426;2022-07-23T01:27:38;6.00;;;4.97;;
56927;SDS011;60850;52.502;13.426;2022-07-23T01:30:05;7.32;;;4.47;;
56927;SDS011;60850;52.502;13.426;2022-07-23T01:32:33;7.55;;;4.65;;
56927;SDS011;60850;52.502;13.426;2022-07-23T01:34:59;8.10;;;4.65;;
56927;SDS011;60850;52.502;13.426;2022-07-23T01:37:26;10.55;;;5.18;;
56927;SDS011;60850;52.502;13.426;2022-07-23T01:39:55;6.25;;;4.80;;
56927;SDS011;60850;52.502;13.426;2022-07-23T01:42:22;5.63;;;4.78;;
56927;SDS011;60850;52.502;13.426;2022-07-23T01:44:49;7.88;;;4.70;;
56927;SDS011;60850;52.502;13.426;2022-07-23T01:47:16;10.63;;;5.50;;
56927;SDS011;60850;52.502;13.426;2022-07-23T01:49:43;7.15;;;4.90;;
56927;SDS011;60850;52.502;13.426;2022-07-23T01:52:10;8.57;;;5.18;;
56927;SDS011;60850;52.502;13.426;2022-07-23T01:54:37;8.75;;;5.05;;
56927;SDS011;60850;52.502;13.426;2022-07-23T01:57:06;10.70;;;5.00;;
56927;SDS011;60850;52.502;13.426;2022-07-23T01:59:33;7.40;;;5.05;;
56927;SDS011;60850;52.502;13.426;2022-07-23T02:02:00;7.80;;;4.88;;
56927;SDS011;60850;52.502;13.426;2022-07-23T02:04:28;8.77;;;5.47;;
56927;SDS011;60850;52.502;13.426;2022-07-23T02:06:55;10.32;;;5.15;;
56927;SDS011;60850;52.502;13.426;2022-07-23T02:09:22;7.07;;;5.20;;
56927;SDS011;60850;52.502;13.426;2022-07-23T02:11:49;6.68;;;5.47;;
56927;SDS011;60850;52.502;13.426;2022-07-23T02:14:17;11.15;;;5.53;;
56927;SDS011;60850;52.502;13.426;2022-07-23T02:16:44;7.55;;;5.05;;
56927;SDS011;60850;52.502;13.426;2022-07-23T02:19:11;6.90;;;4.78;;
56927;SDS011;60850;52.502;13.426;2022-07-23T02:21:38;7.15;;;5.25;;
56927;SDS011;60850;52.502;13.426;2022-07-23T02:24:04;8.80;;;5.03;;
56927;SDS011;60850;52.502;13.426;2022-07-23T02:26:32;9.48;;;5.45;;
56927;SDS011;60850;52.502;13.426;2022-07-23T02:29:00;8.75;;;5.22;;
56927;SDS011;60850;52.502;13.426;2022-07-23T02:31:28;6.65;;;5.00;;
56927;SDS011;60850;52.502;13.426;2022-07-23T02:33:55;8.00;;;4.28;;
56927;SDS011;60850;52.502;13.426;2022-07-23T02:36:22;8.40;;;5.00;;
56927;SDS011;60850;52.502;13.426;2022-07-23T02:38:49;7.40;;;4.45;;
56927;SDS011;60850;52.502;13.426;2022-07-23T02:41:16;8.23;;;4.55;;
56927;SDS011;60850;52.502;13.426;2022-07-23T02:43:43;10.07;;;4.60;;
56927;SDS011;60850;52.502;13.426;2022-07-23T02:46:10;7.28;;;4.50;;
56927;SDS011;60850;52.502;13.426;2022-07-23T02:48:38;10.95;;;5.43;;
56927;SDS011;60850;52.502;13.426;2022-07-23T02:51:05;7.03;;;5.30;;
56927;SDS011;60850;52.502;13.426;2022-07-23T02:53:32;6.57;;;5.03;;
56927;SDS011;60850;52.502;13.426;2022-07-23T02:55:59;6.70;;;4.30;;
56927;SDS011;60850;52.502;13.426;2022-07-23T02:58:25;6.40;;;4.53;;
56927;SDS011;60850;52.502;13.426;2022-07-23T03:00:52;7.03;;;4.70;;
56927;SDS011;60850;52.502;13.426;2022-07-23T03:03:19;10.25;;;4.55;;
56927;SDS011;60850;52.502;13.426;2022-07-23T03:05:47;7.78;;;4.50;;
56927;SDS011;60850;52.502;13.426;2022-07-23T03:08:14;7.15;;;4.88;;
56927;SDS011;60850;52.502;13.426;2022-07-23T03:10:41;7.70;;;4.60;;
56927;SDS011;60850;52.502;13.426;2022-07-23T03:13:08;8.30;;;4.95;;
56927;SDS011;60850;52.502;13.426;2022-07-23T03:15:34;11.50;;;4.90;;
56927;SDS011;60850;52.502;13.426;2022-07-23T03:18:01;8.55;;;4.75;;
56927;SDS011;60850;52.502;13.426;2022-07-23T03:20:28;7.13;;;4.95;;
56927;SDS011;60850;52.502;13.426;2022-07-23T03:22:56;6.85;;;4.47;;
56927;SDS011;60850;52.502;13.426;2022-07-23T03:25:23;7.95;;;4.78;;
56927;SDS011;60850;52.502;13.426;2022-07-23T03:27:50;6.60;;;4.32;;
56927;SDS011;60850;52.502;13.426;2022-07-23T03:30:16;9.43;;;4.85;;
56927;SDS011;60850;52.502;13.426;2022-07-23T03:32:43;9.27;;;5.10;;
56927;SDS011;60850;52.502;13.426;2022-07-23T03:35:10;7.72;;;4.53;;
56927;SDS011;60850;52.502;13.426;2022-07-23T03:37:37;7.53;;;4.82;;
56927;SDS011;60850;52.502;13.426;2022-07-23T03:40:06;6.03;;;3.95;;
56927;SDS011;60850;52.502;13.426;2022-07-23T03:42:34;10.48;;;5.00;;
56927;SDS011;60850;52.502;13.426;2022-07-23T03:45:02;5.85;;;4.05;;
56927;SDS011;60850;52.502;13.426;2022-07-23T03:47:30;9.40;;;3.95;;
56927;SDS011;60850;52.502;13.426;2022-07-23T03:49:56;6.90;;;3.80;;
56927;SDS011;60850;52.502;13.426;2022-07-23T03:52:23;11.93;;;4.20;;
56927;SDS011;60850;52.502;13.426;2022-07-23T03:54:50;7.20;;;4.03;;
56927;SDS011;60850;52.502;13.426;2022-07-23T03:57:18;7.10;;;3.60;;
56927;SDS011;60850;52.502;13.426;2022-07-23T03:59:45;6.22;;;3.85;;
56927;SDS011;60850;52.502;13.426;2022-07-23T04:02:12;8.00;;;3.45;;
56927;SDS011;60850;52.502;13.426;2022-07-23T04:04:38;7.45;;;3.45;;
56927;SDS011;60850;52.502;13.426;2022-07-23T04:07:05;9.10;;;3.53;;
56927;SDS011;60850;52.502;13.426;2022-07-23T04:09:33;8.20;;;3.80;;
56927;SDS011;60850;52.502;13.426;2022-07-23T04:12:00;8.18;;;3.78;;
56927;SDS011;60850;52.502;13.426;2022-07-23T04:14:28;6.88;;;3.20;;
56927;SDS011;60850;52.502;13.426;2022-07-23T04:16:55;6.50;;;3.60;;
56927;SDS011;60850;52.502;13.426;2022-07-23T04:19:22;5.88;;;2.95;;
56927;SDS011;60850;52.502;13.426;2022-07-23T04:21:48;8.13;;;2.90;;
56927;SDS011;60850;52.502;13.426;2022-07-23T04:24:15;6.88;;;3.78;;
56927;SDS011;60850;52.502;13.426;2022-07-23T04:26:43;5.38;;;3.47;;
56927;SDS011;60850;52.502;13.426;2022-07-23T04:29:09;7.30;;;3.55;;
56927;SDS011;60850;52.502;13.426;2022-07-23T04:31:38;4.10;;;2.72;;
56927;SDS011;60850;52.502;13.426;2022-07-23T04:34:05;3.92;;;2.67;;
56927;SDS011;60850;52.502;13.426;2022-07-23T04:36:31;6.35;;;2.38;;
56927;SDS011;60850;52.502;13.426;2022-07-23T04:38:58;8.82;;;3.00;;
56927;SDS011;60850;52.502;13.426;2022-07-23T04:41:25;5.47;;;2.47;;
56927;SDS011;60850;52.502;13.426;2022-07-23T04:43:52;8.07;;;2.60;;
56927;SDS011;60850;52.502;13.426;2022-07-23T04:46:19;7.85;;;2.45;;
56927;SDS011;60850;52.502;13.426;2022-07-23T04:48:47;8.43;;;2.97;;
56927;SDS011;60850;52.502;13.426;2022-07-23T04:51:13;7.97;;;3.45;;
56927;SDS011;60850;52.502;13.426;2022-07-23T04:53:40;4.68;;;2.22;;
56927;SDS011;60850;52.502;13.426;2022-07-23T04:56:07;2.60;;;2.30;;
56927;SDS011;60850;52.502;13.426;2022-07-23T04:58:34;7.07;;;3.03;;
56927;SDS011;60850;52.502;13.426;2022-07-23T05:01:01;6.88;;;2.58;;
56927;SDS011;60850;52.502;13.426;2022-07-23T05:03:28;9.75;;;3.50;;
56927;SDS011;60850;52.502;13.426;2022-07-23T05:05:56;5.45;;;2.58;;
56927;SDS011;60850;52.502;13.426;2022-07-23T05:08:23;8.80;;;2.45;;
56927;SDS011;60850;52.502;13.426;2022-07-23T05:10:50;6.30;;;2.42;;
56927;SDS011;60850;52.502;13.426;2022-07-23T05:13:17;5.55;;;2.55;;
56927;SDS011;60850;52.502;13.426;2022-07-23T05:15:44;4.20;;;2.33;;
56927;SDS011;60850;52.502;13.426;2022-07-23T05:18:12;5.72;;;2.28;;
56927;SDS011;60850;52.502;13.426;2022-07-23T05:20:39;5.90;;;2.45;;
56927;SDS011;60850;52.502;13.426;2022-07-23T05:23:07;6.20;;;2.30;;
56927;SDS011;60850;52.502;13.426;2022-07-23T05:25:35;6.60;;;3.00;;
56927;SDS011;60850;52.502;13.426;2022-07-23T05:28:02;5.80;;;2.53;;
56927;SDS011;60850;52.502;13.426;2022-07-23T05:30:29;7.18;;;2.63;;
56927;SDS011;60850;52.502;13.426;2022-07-23T05:32:56;6.93;;;2.88;;
56927;SDS011;60850;52.502;13.426;2022-07-23T05:35:23;5.32;;;2.63;;
56927;SDS011;60850;52.502;13.426;2022-07-23T05:37:50;5.50;;;2.80;;
56927;SDS011;60850;52.502;13.426;2022-07-23T05:40:19;8.77;;;3.00;;
56927;SDS011;60850;52.502;13.426;2022-07-23T05:42:46;5.82;;;2.80;;
56927;SDS011;60850;52.502;13.426;2022-07-23T05:45:12;7.32;;;2.70;;
56927;SDS011;60850;52.502;13.426;2022-07-23T05:47:40;4.65;;;2.58;;
56927;SDS011;60850;52.502;13.426;2022-07-23T05:50:11;4.78;;;2.80;;
56927;SDS011;60850;52.502;13.426;2022-07-23T05:52:39;5.47;;;2.75;;
56927;SDS011;60850;52.502;13.426;2022-07-23T05:55:07;4.53;;;2.47;;
56927;SDS011;60850;52.502;13.426;2022-07-23T05:57:36;6.32;;;2.50;;
56927;SDS011;60850;52.502;13.426;2022-07-23T06:00:04;5.68;;;2.60;;
56927;SDS011;60850;52.502;13.426;2022-07-23T06:02:32;4.63;;;2.70;;
56927;SDS011;60850;52.502;13.426;2022-07-23T06:04:59;6.20;;;2.70;;
56927;SDS011;60850;52.502;13.426;2022-07-23T06:07:26;7.40;;;2.95;;
56927;SDS011;60850;52.502;13.426;2022-07-23T06:09:53;4.68;;;2.80;;
56927;SDS011;60850;52.502;13.426;2022-07-23T06:12:20;6.60;;;2.83;;
56927;SDS011;60850;52.502;13.426;2022-07-23T06:14:48;9.07;;;3.90;;
56927;SDS011;60850;52.502;13.426;2022-07-23T06:17:17;8.02;;;2.55;;
56927;SDS011;60850;52.502;13.426;2022-07-23T06:19:43;9.45;;;3.38;;
56927;SDS011;60850;52.502;13.426;2022-07-23T06:22:10;5.50;;;3.00;;
56927;SDS011;60850;52.502;13.426;2022-07-23T06:24:37;8.48;;;3.35;;
56927;SDS011;60850;52.502;13.426;2022-07-23T06:27:04;8.25;;;2.90;;
56927;SDS011;60850;52.502;13.426;2022-07-23T06:29:31;6.97;;;3.50;;
56927;SDS011;60850;52.502;13.426;2022-07-23T06:31:59;6.50;;;3.65;;
56927;SDS011;60850;52.502;13.426;2022-07-23T06:34:26;6.97;;;3.47;;
56927;SDS011;60850;52.502;13.426;2022-07-23T06:36:53;6.47;;;3.15;;
56927;SDS011;60850;52.502;13.426;2022-07-23T06:39:19;5.22;;;2.92;;
56927;SDS011;60850;52.502;13.426;2022-07-23T06:41:46;8.00;;;3.35;;
56927;SDS011;60850;52.502;13.426;2022-07-23T06:44:13;7.47;;;3.28;;
56927;SDS011;60850;52.502;13.426;2022-07-23T06:46:40;8.05;;;3.42;;
56927;SDS011;60850;52.502;13.426;2022-07-23T06:49:08;4.95;;;3.13;;
56927;SDS011;60850;52.502;13.426;2022-07-23T06:51:35;6.85;;;3.30;;
56927;SDS011;60850;52.502;13.426;2022-07-23T06:54:02;8.10;;;4.05;;
56927;SDS011;60850;52.502;13.426;2022-07-23T06:56:29;6.32;;;3.50;;
56927;SDS011;60850;52.502;13.426;2022-07-23T06:58:56;6.63;;;3.38;;
56927;SDS011;60850;52.502;13.426;2022-07-23T07:01:23;5.85;;;3.40;;
56927;SDS011;60850;52.502;13.426;2022-07-23T07:03:50;6.22;;;3.47;;
56927;SDS011;60850;52.502;13.426;2022-07-23T07:06:18;7.05;;;3.28;;
56927;SDS011;60850;52.502;13.426;2022-07-23T07:08:45;6.40;;;3.95;;
56927;SDS011;60850;52.502;13.426;2022-07-23T07:11:11;6.82;;;3.80;;
56927;SDS011;60850;52.502;13.426;2022-07-23T07:13:38;6.70;;;3.40;;
56927;SDS011;60850;52.502;13.426;2022-07-23T07:16:05;8.68;;;3.40;;
56927;SDS011;60850;52.502;13.426;2022-07-23T07:18:32;9.77;;;3.88;;
56927;SDS011;60850;52.502;13.426;2022-07-23T07:20:59;12.10;;;3.97;;
56927;SDS011;60850;52.502;13.426;2022-07-23T07:23:27;7.60;;;4.32;;
56927;SDS011;60850;52.502;13.426;2022-07-23T07:25:54;8.65;;;4.88;;
56927;SDS011;60850;52.502;13.426;2022-07-23T07:28:21;9.57;;;4.20;;
56927;SDS011;60850;52.502;13.426;2022-07-23T07:30:47;14.07;;;8.30;;
56927;SDS011;60850;52.502;13.426;2022-07-23T07:33:14;7.35;;;4.40;;
56927;SDS011;60850;52.502;13.426;2022-07-23T07:35:41;8.73;;;4.57;;
56927;SDS011;60850;52.502;13.426;2022-07-23T07:38:08;7.00;;;4.25;;
56927;SDS011;60850;52.502;13.426;2022-07-23T07:40:36;7.55;;;4.25;;
56927;SDS011;60850;52.502;13.426;2022-07-23T07:43:03;9.40;;;4.60;;
56927;SDS011;60850;52.502;13.426;2022-07-23T07:45:30;10.15;;;5.25;;
56927;SDS011;60850;52.502;13.426;2022-07-23T07:47:58;13.48;;;5.32;;
56927;SDS011;60850;52.502;13.426;2022-07-23T07:50:25;12.05;;;5.78;;
56927;SDS011;60850;52.502;13.426;2022-07-23T07:52:53;11.70;;;5.68;;
56927;SDS011;60850;52.502;13.426;2022-07-23T07:55:20;10.82;;;5.75;;
56927;SDS011;60850;52.502;13.426;2022-07-23T07:57:49;7.22;;;4.43;;
56927;SDS011;60850;52.502;13.426;2022-07-23T08:00:16;12.25;;;5.43;;
56927;SDS011;60850;52.502;13.426;2022-07-23T08:02:43;8.02;;;4.90;;
56927;SDS011;60850;52.502;13.426;2022-07-23T08:05:11;5.85;;;3.67;;
56927;SDS011;60850;52.502;13.426;2022-07-23T08:07:38;8.60;;;4.10;;
56927;SDS011;60850;52.502;13.426;2022-07-23T08:10:05;6.47;;;3.50;;
56927;SDS011;60850;52.502;13.426;2022-07-23T08:12:39;7.03;;;3.60;;
56927;SDS011;60850;52.502;13.426;2022-07-23T08:15:08;6.38;;;3.45;;
56927;SDS011;60850;52.502;13.426;2022-07-23T08:17:36;9.07;;;3.97;;
56927;SDS011;60850;52.502;13.426;2022-07-23T08:20:04;6.85;;;2.80;;
56927;SDS011;60850;52.502;13.426;2022-07-23T08:22:45;5.25;;;2.58;;
56927;SDS011;60850;52.502;13.426;2022-07-23T08:25:16;6.72;;;3.05;;
56927;SDS011;60850;52.502;13.426;2022-07-23T08:27:47;4.53;;;2.15;;
56927;SDS011;60850;52.502;13.426;2022-07-23T08:30:16;4.82;;;2.80;;
56927;SDS011;60850;52.502;13.426;2022-07-23T08:32:50;6.32;;;2.85;;
56927;SDS011;60850;52.502;13.426;2022-07-23T08:35:18;8.55;;;2.30;;
56927;SDS011;60850;52.502;13.426;2022-07-23T08:37:49;6.57;;;2.58;;
56927;SDS011;60850;52.502;13.426;2022-07-23T08:40:15;4.20;;;2.17;;
56927;SDS011;60850;52.502;13.426;2022-07-23T08:42:42;7.10;;;2.53;;
56927;SDS011;60850;52.502;13.426;2022-07-23T08:45:11;6.00;;;2.58;;
56927;SDS011;60850;52.502;13.426;2022-07-23T08:47:41;9.20;;;2.70;;
56927;SDS011;60850;52.502;13.426;2022-07-23T08:50:09;2.80;;;2.13;;
56927;SDS011;60850;52.502;13.426;2022-07-23T08:52:37;5.78;;;2.22;;
56927;SDS011;60850;52.502;13.426;2022-07-23T08:55:05;4.80;;;2.15;;
56927;SDS011;60850;52.502;13.426;2022-07-23T08:57:33;5.38;;;2.15;;
56927;SDS011;60850;52.502;13.426;2022-07-23T09:00:00;4.38;;;1.98;;
56927;SDS011;60850;52.502;13.426;2022-07-23T09:02:27;5.28;;;1.75;;
56927;SDS011;60850;52.502;13.426;2022-07-23T09:04:55;3.83;;;1.90;;
56927;SDS011;60850;52.502;13.426;2022-07-23T09:07:22;5.28;;;1.77;;
56927;SDS011;60850;52.502;13.426;2022-07-23T09:09:52;3.22;;;1.85;;
56927;SDS011;60850;52.502;13.426;2022-07-23T09:12:32;4.85;;;1.80;;
56927;SDS011;60850;52.502;13.426;2022-07-23T09:15:03;3.40;;;1.55;;
56927;SDS011;60850;52.502;13.426;2022-07-23T09:20:11;3.13;;;1.50;;
56927;SDS011;60850;52.502;13.426;2022-07-23T09:22:40;3.63;;;1.42;;
56927;SDS011;60850;52.502;13.426;2022-07-23T09:25:12;3.85;;;2.00;;
56927;SDS011;60850;52.502;13.426;2022-07-23T09:27:49;4.05;;;1.67;;
56927;SDS011;60850;52.502;13.426;2022-07-23T09:30:18;3.75;;;2.47;;
56927;SDS011;60850;52.502;13.426;2022-07-23T09:35:46;6.35;;;2.45;;
56927;SDS011;60850;52.502;13.426;2022-07-23T09:38:15;5.90;;;2.10;;
56927;SDS011;60850;52.502;13.426;2022-07-23T09:40:42;5.85;;;2.92;;
56927;SDS011;60850;52.502;13.426;2022-07-23T09:43:09;6.07;;;2.53;;
56927;SDS011;60850;52.502;13.426;2022-07-23T09:45:37;6.28;;;2.72;;
56927;SDS011;60850;52.502;13.426;2022-07-23T09:48:11;5.68;;;2.58;;
56927;SDS011;60850;52.502;13.426;2022-07-23T09:50:40;4.45;;;2.55;;
56927;SDS011;60850;52.502;13.426;2022-07-23T09:53:09;4.68;;;2.20;;
56927;SDS011;60850;52.502;13.426;2022-07-23T09:55:36;4.00;;;2.15;;
56927;SDS011;60850;52.502;13.426;2022-07-23T09:58:05;7.10;;;2.50;;
56927;SDS011;60850;52.502;13.426;2022-07-23T10:00:34;6.30;;;2.13;;
56927;SDS011;60850;52.502;13.426;2022-07-23T10:03:02;4.78;;;2.83;;
56927;SDS011;60850;52.502;13.426;2022-07-23T10:05:33;4.90;;;2.88;;
56927;SDS011;60850;52.502;13.426;2022-07-23T10:08:01;4.55;;;2.20;;
56927;SDS011;60850;52.502;13.426;2022-07-23T10:10:30;2.75;;;1.98;;
56927;SDS011;60850;52.502;13.426;2022-07-23T10:12:58;4.45;;;2.70;;
56927;SDS011;60850;52.502;13.426;2022-07-23T10:15:40;5.35;;;2.47;;
56927;SDS011;60850;52.502;13.426;2022-07-23T10:18:08;3.30;;;2.00;;
56927;SDS011;60850;52.502;13.426;2022-07-23T10:20:36;5.50;;;2.72;;
56927;SDS011;60850;52.502;13.426;2022-07-23T10:23:05;5.70;;;2.33;;
56927;SDS011;60850;52.502;13.426;2022-07-23T10:25:40;5.47;;;2.58;;
56927;SDS011;60850;52.502;13.426;2022-07-23T10:28:38;7.53;;;2.85;;
56927;SDS011;60850;52.502;13.426;2022-07-23T10:31:14;5.55;;;2.40;;
56927;SDS011;60850;52.502;13.426;2022-07-23T10:33:54;3.97;;;2.17;;
56927;SDS011;60850;52.502;13.426;2022-07-23T10:36:30;4.38;;;2.33;;
56927;SDS011;60850;52.502;13.426;2022-07-23T10:39:04;5.78;;;2.38;;
56927;SDS011;60850;52.502;13.426;2022-07-23T10:41:36;5.75;;;2.40;;
56927;SDS011;60850;52.502;13.426;2022-07-23T10:44:05;3.50;;;2.00;;
56927;SDS011;60850;52.502;13.426;2022-07-23T10:46:34;4.85;;;2.05;;
56927;SDS011;60850;52.502;13.426;2022-07-23T10:49:20;6.30;;;2.53;;
56927;SDS011;60850;52.502;13.426;2022-07-23T10:54:49;5.53;;;2.53;;
56927;SDS011;60850;52.502;13.426;2022-07-23T10:57:19;5.88;;;2.20;;
56927;SDS011;60850;52.502;13.426;2022-07-23T11:02:43;8.48;;;2.42;;
56927;SDS011;60850;52.502;13.426;2022-07-23T11:05:12;5.88;;;2.47;;
56927;SDS011;60850;52.502;13.426;2022-07-23T11:10:41;4.70;;;2.60;;
56927;SDS011;60850;52.502;13.426;2022-07-23T11:13:33;10.27;;;2.97;;
56927;SDS011;60850;52.502;13.426;2022-07-23T11:16:04;5.50;;;2.35;;
56927;SDS011;60850;52.502;13.426;2022-07-23T11:21:49;4.50;;;2.63;;
56927;SDS011;60850;52.502;13.426;2022-07-23T11:24:20;4.07;;;2.67;;
56927;SDS011;60850;52.502;13.426;2022-07-23T11:26:50;3.92;;;2.53;;
56927;SDS011;60850;52.502;13.426;2022-07-23T11:29:42;5.10;;;2.53;;
56927;SDS011;60850;52.502;13.426;2022-07-23T11:32:33;5.85;;;2.85;;
56927;SDS011;60850;52.502;13.426;2022-07-23T11:35:18;4.00;;;2.47;;
56927;SDS011;60850;52.502;13.426;2022-07-23T11:37:46;4.33;;;2.93;;
56927;SDS011;60850;52.502;13.426;2022-07-23T11:40:14;6.80;;;2.97;;
56927;SDS011;60850;52.502;13.426;2022-07-23T11:42:54;4.95;;;2.85;;
56927;SDS011;60850;52.502;13.426;2022-07-23T11:45:23;7.38;;;3.13;;
56927;SDS011;60850;52.502;13.426;2022-07-23T11:47:52;6.22;;;2.85;;
56927;SDS011;60850;52.502;13.426;2022-07-23T11:50:22;7.45;;;2.88;;
56927;SDS011;60850;52.502;13.426;2022-07-23T11:52:51;4.20;;;3.00;;
56927;SDS011;60850;52.502;13.426;2022-07-23T11:55:18;5.38;;;2.78;;
56927;SDS011;60850;52.502;13.426;2022-07-23T11:57:44;6.95;;;2.55;;
56927;SDS011;60850;52.502;13.426;2022-07-23T12:00:12;5.93;;;3.00;;
56927;SDS011;60850;52.502;13.426;2022-07-23T12:02:43;4.57;;;2.70;;
56927;SDS011;60850;52.502;13.426;2022-07-23T12:05:11;6.43;;;3.15;;
56927;SDS011;60850;52.502;13.426;2022-07-23T12:07:40;5.55;;;2.80;;
56927;SDS011;60850;52.502;13.426;2022-07-23T12:10:10;5.32;;;2.80;;
56927;SDS011;60850;52.502;13.426;2022-07-23T12:12:40;4.28;;;3.00;;
56927;SDS011;60850;52.502;13.426;2022-07-23T12:15:09;5.30;;;2.80;;
56927;SDS011;60850;52.502;13.426;2022-07-23T12:17:38;4.63;;;2.42;;
56927;SDS011;60850;52.502;13.426;2022-07-23T12:20:08;7.05;;;3.25;;
56927;SDS011;60850;52.502;13.426;2022-07-23T12:22:38;6.10;;;2.70;;
56927;SDS011;60850;52.502;13.426;2022-07-23T12:25:07;7.03;;;2.83;;
56927;SDS011;60850;52.502;13.426;2022-07-23T12:27:36;3.10;;;2.58;;
56927;SDS011;60850;52.502;13.426;2022-07-23T12:30:19;3.70;;;2.25;;
56927;SDS011;60850;52.502;13.426;2022-07-23T12:32:49;4.07;;;2.90;;
56927;SDS011;60850;52.502;13.426;2022-07-23T12:35:19;5.25;;;2.80;;
56927;SDS011;60850;52.502;13.426;2022-07-23T12:37:47;8.52;;;3.33;;
56927;SDS011;60850;52.502;13.426;2022-07-23T12:40:21;6.95;;;3.55;;
56927;SDS011;60850;52.502;13.426;2022-07-23T12:42:51;5.30;;;3.17;;
56927;SDS011;60850;52.502;13.426;2022-07-23T12:45:19;4.70;;;2.95;;
56927;SDS011;60850;52.502;13.426;2022-07-23T12:47:50;6.70;;;3.13;;
56927;SDS011;60850;52.502;13.426;2022-07-23T12:50:36;8.77;;;4.37;;
56927;SDS011;60850;52.502;13.426;2022-07-23T12:53:10;7.80;;;3.65;;
56927;SDS011;60850;52.502;13.426;2022-07-23T12:55:42;8.03;;;3.97;;
56927;SDS011;60850;52.502;13.426;2022-07-23T12:58:14;7.07;;;4.30;;
56927;SDS011;60850;52.502;13.426;2022-07-23T13:00:51;4.05;;;3.05;;
56927;SDS011;60850;52.502;13.426;2022-07-23T13:03:27;7.30;;;3.35;;
56927;SDS011;60850;52.502;13.426;2022-07-23T13:05:57;6.78;;;3.00;;
56927;SDS011;60850;52.502;13.426;2022-07-23T13:08:24;4.35;;;3.05;;
56927;SDS011;60850;52.502;13.426;2022-07-23T13:10:53;5.72;;;3.15;;
56927;SDS011;60850;52.502;13.426;2022-07-23T13:13:20;5.38;;;3.03;;
56927;SDS011;60850;52.502;13.426;2022-07-23T13:15:48;6.95;;;3.10;;
56927;SDS011;60850;52.502;13.426;2022-07-23T13:18:16;5.18;;;2.85;;
56927;SDS011;60850;52.502;13.426;2022-07-23T13:20:43;7.45;;;2.85;;
56927;SDS011;60850;52.502;13.426;2022-07-23T13:23:11;4.78;;;3.72;;
56927;SDS011;60850;52.502;13.426;2022-07-23T13:25:38;4.50;;;3.47;;
56927;SDS011;60850;52.502;13.426;2022-07-23T13:28:05;4.28;;;3.25;;
56927;SDS011;60850;52.502;13.426;2022-07-23T13:30:32;4.05;;;3.25;;
56927;SDS011;60850;52.502;13.426;2022-07-23T13:33:00;7.13;;;3.60;;
56927;SDS011;60850;52.502;13.426;2022-07-23T13:35:27;8.93;;;4.00;;
56927;SDS011;60850;52.502;13.426;2022-07-23T13:37:54;3.85;;;3.15;;
56927;SDS011;60850;52.502;13.426;2022-07-23T13:40:22;7.53;;;3.22;;
56927;SDS011;60850;52.502;13.426;2022-07-23T13:42:49;5.68;;;3.22;;
56927;SDS011;60850;52.502;13.426;2022-07-23T13:45:16;4.90;;;2.97;;
56927;SDS011;60850;52.502;13.426;2022-07-23T13:47:43;4.60;;;3.45;;
56927;SDS011;60850;52.502;13.426;2022-07-23T13:50:10;4.20;;;2.95;;
56927;SDS011;60850;52.502;13.426;2022-07-23T13:52:36;7.97;;;3.85;;
56927;SDS011;60850;52.502;13.426;2022-07-23T13:55:04;4.47;;;2.83;;
56927;SDS011;60850;52.502;13.426;2022-07-23T13:57:34;4.72;;;2.92;;
56927;SDS011;60850;52.502;13.426;2022-07-23T14:00:01;4.47;;;2.53;;
56927;SDS011;60850;52.502;13.426;2022-07-23T14:02:29;4.95;;;2.75;;
56927;SDS011;60850;52.502;13.426;2022-07-23T14:04:56;5.72;;;3.40;;
56927;SDS011;60850;52.502;13.426;2022-07-23T14:07:23;5.80;;;2.72;;
56927;SDS011;60850;52.502;13.426;2022-07-23T14:09:50;5.45;;;2.47;;
56927;SDS011;60850;52.502;13.426;2022-07-23T14:12:17;4.18;;;2.60;;
56927;SDS011;60850;52.502;13.426;2022-07-23T14:14:45;4.07;;;2.78;;
56927;SDS011;60850;52.502;13.426;2022-07-23T14:17:12;3.30;;;2.72;;
56927;SDS011;60850;52.502;13.426;2022-07-23T14:19:39;4.57;;;2.50;;
56927;SDS011;60850;52.502;13.426;2022-07-23T14:22:06;6.43;;;2.63;;
56927;SDS011;60850;52.502;13.426;2022-07-23T14:24:33;5.15;;;2.53;;
56927;SDS011;60850;52.502;13.426;2022-07-23T14:27:00;4.13;;;2.30;;
56927;SDS011;60850;52.502;13.426;2022-07-23T14:29:27;5.28;;;2.85;;
56927;SDS011;60850;52.502;13.426;2022-07-23T14:31:56;4.75;;;2.63;;
56927;SDS011;60850;52.502;13.426;2022-07-23T14:34:24;2.97;;;2.35;;
56927;SDS011;60850;52.502;13.426;2022-07-23T14:36:51;3.58;;;2.28;;
56927;SDS011;60850;52.502;13.426;2022-07-23T14:39:18;4.28;;;2.47;;
56927;SDS011;60850;52.502;13.426;2022-07-23T14:41:45;2.78;;;1.95;;
56927;SDS011;60850;52.502;13.426;2022-07-23T14:44:12;4.70;;;2.40;;
56927;SDS011;60850;52.502;13.426;2022-07-23T14:46:39;4.65;;;2.65;;
56927;SDS011;60850;52.502;13.426;2022-07-23T14:49:07;3.00;;;2.03;;
56927;SDS011;60850;52.502;13.426;2022-07-23T14:51:34;7.85;;;2.80;;
56927;SDS011;60850;52.502;13.426;2022-07-23T14:54:01;4.45;;;2.22;;
56927;SDS011;60850;52.502;13.426;2022-07-23T14:59:11;3.65;;;2.40;;
56927;SDS011;60850;52.502;13.426;2022-07-23T15:01:38;3.30;;;1.98;;